Sueca, Spain
Current Conditions -  °F | °C
As of 3:00 AM on Saturday 20 Dec 2014 (Local Time) from LEVC Reporting Station
Moderate Fog Moderate Fog  
Wind Chill: 10°   Ceiling: 100
Heat Index: 10°   Visibility: 0.15mi
Dew Point: 10°   Wind: 1mph
Humidity: 100%   Direction: NA
Pressure: 30.42"   Gusts: NA
Location:  39.2°N, 0.31°W
Report Text: LEVC 200200Z VRB01KT 0250 R30/0400N FG VV001 10/10 Q1030 NOSIG
Loading
Personal Weather Stations






























Interactive Weather Map New forecast layout! Learn more

10-Day Weather Forecast

Advertisements
Track Severe Weather on mobile